sensor_id;sensor_type;location;lat;lon;timestamp;P1;durP1;ratioP1;P2;durP2;ratioP2
14872;SDS011;7528;48.576;19.122;2022-10-18T00:04:13;15.60;;;13.73;;
14872;SDS011;7528;48.576;19.122;2022-10-18T00:09:16;15.07;;;12.70;;
14872;SDS011;7528;48.576;19.122;2022-10-18T00:14:19;15.97;;;14.20;;
14872;SDS011;7528;48.576;19.122;2022-10-18T00:19:21;17.60;;;14.40;;
14872;SDS011;7528;48.576;19.122;2022-10-18T00:24:25;16.40;;;14.40;;
14872;SDS011;7528;48.576;19.122;2022-10-18T00:29:28;19.13;;;13.87;;
14872;SDS011;7528;48.576;19.122;2022-10-18T00:34:30;16.33;;;14.63;;
14872;SDS011;7528;48.576;19.122;2022-10-18T00:39:34;15.67;;;14.07;;
14872;SDS011;7528;48.576;19.122;2022-10-18T00:50:03;14.37;;;12.77;;
14872;SDS011;7528;48.576;19.122;2022-10-18T00:55:09;15.13;;;13.40;;
14872;SDS011;7528;48.576;19.122;2022-10-18T01:00:12;15.70;;;14.10;;
14872;SDS011;7528;48.576;19.122;2022-10-18T01:05:16;14.37;;;12.87;;
14872;SDS011;7528;48.576;19.122;2022-10-18T01:10:24;16.03;;;12.30;;
14872;SDS011;7528;48.576;19.122;2022-10-18T01:15:30;16.07;;;12.80;;
14872;SDS011;7528;48.576;19.122;2022-10-18T01:26:10;15.23;;;12.40;;
14872;SDS011;7528;48.576;19.122;2022-10-18T01:31:23;16.53;;;12.23;;
14872;SDS011;7528;48.576;19.122;2022-10-18T01:36:30;17.83;;;12.73;;
14872;SDS011;7528;48.576;19.122;2022-10-18T01:41:35;15.63;;;12.50;;
14872;SDS011;7528;48.576;19.122;2022-10-18T01:46:41;22.23;;;13.30;;
14872;SDS011;7528;48.576;19.122;2022-10-18T01:51:44;16.80;;;12.43;;
14872;SDS011;7528;48.576;19.122;2022-10-18T01:56:48;17.00;;;12.40;;
14872;SDS011;7528;48.576;19.122;2022-10-18T02:02:01;14.17;;;12.10;;
14872;SDS011;7528;48.576;19.122;2022-10-18T02:07:13;14.53;;;12.73;;
14872;SDS011;7528;48.576;19.122;2022-10-18T02:12:21;14.77;;;12.00;;
14872;SDS011;7528;48.576;19.122;2022-10-18T02:17:25;15.67;;;12.10;;
14872;SDS011;7528;48.576;19.122;2022-10-18T02:22:31;14.83;;;11.67;;
14872;SDS011;7528;48.576;19.122;2022-10-18T02:27:35;14.60;;;11.77;;
14872;SDS011;7528;48.576;19.122;2022-10-18T02:32:39;19.80;;;12.70;;
14872;SDS011;7528;48.576;19.122;2022-10-18T02:37:45;21.20;;;13.60;;
14872;SDS011;7528;48.576;19.122;2022-10-18T02:42:52;30.23;;;16.60;;
14872;SDS011;7528;48.576;19.122;2022-10-18T02:47:57;23.53;;;13.67;;
14872;SDS011;7528;48.576;19.122;2022-10-18T02:53:00;25.83;;;14.57;;
14872;SDS011;7528;48.576;19.122;2022-10-18T02:58:02;18.57;;;14.20;;
14872;SDS011;7528;48.576;19.122;2022-10-18T03:03:06;21.00;;;14.60;;
14872;SDS011;7528;48.576;19.122;2022-10-18T03:08:08;19.73;;;14.40;;
14872;SDS011;7528;48.576;19.122;2022-10-18T03:13:11;23.27;;;15.37;;
14872;SDS011;7528;48.576;19.122;2022-10-18T03:18:15;22.03;;;15.23;;
14872;SDS011;7528;48.576;19.122;2022-10-18T03:23:17;19.33;;;14.47;;
14872;SDS011;7528;48.576;19.122;2022-10-18T03:28:19;18.97;;;14.20;;
14872;SDS011;7528;48.576;19.122;2022-10-18T03:33:23;21.63;;;15.07;;
14872;SDS011;7528;48.576;19.122;2022-10-18T03:38:26;23.40;;;16.40;;
14872;SDS011;7528;48.576;19.122;2022-10-18T03:43:28;23.43;;;16.07;;
14872;SDS011;7528;48.576;19.122;2022-10-18T03:48:32;19.50;;;16.13;;
14872;SDS011;7528;48.576;19.122;2022-10-18T03:53:34;26.20;;;17.27;;
14872;SDS011;7528;48.576;19.122;2022-10-18T03:58:37;23.43;;;15.03;;
14872;SDS011;7528;48.576;19.122;2022-10-18T04:03:41;20.90;;;15.20;;
14872;SDS011;7528;48.576;19.122;2022-10-18T04:08:43;75.70;;;20.17;;
14872;SDS011;7528;48.576;19.122;2022-10-18T04:13:46;30.17;;;16.87;;
14872;SDS011;7528;48.576;19.122;2022-10-18T04:18:49;32.97;;;17.00;;
14872;SDS011;7528;48.576;19.122;2022-10-18T04:23:52;25.03;;;17.17;;
14872;SDS011;7528;48.576;19.122;2022-10-18T04:28:54;53.30;;;19.30;;
14872;SDS011;7528;48.576;19.122;2022-10-18T04:33:58;36.20;;;19.33;;
14872;SDS011;7528;48.576;19.122;2022-10-18T04:39:01;34.17;;;18.80;;
14872;SDS011;7528;48.576;19.122;2022-10-18T04:44:04;43.87;;;19.50;;
14872;SDS011;7528;48.576;19.122;2022-10-18T04:49:08;39.47;;;18.93;;
14872;SDS011;7528;48.576;19.122;2022-10-18T04:54:10;41.30;;;22.27;;
14872;SDS011;7528;48.576;19.122;2022-10-18T04:59:13;55.50;;;24.23;;
14872;SDS011;7528;48.576;19.122;2022-10-18T05:04:16;36.40;;;21.57;;
14872;SDS011;7528;48.576;19.122;2022-10-18T05:09:19;41.03;;;20.63;;
14872;SDS011;7528;48.576;19.122;2022-10-18T05:14:24;49.37;;;24.00;;
14872;SDS011;7528;48.576;19.122;2022-10-18T05:19:27;70.43;;;26.67;;
14872;SDS011;7528;48.576;19.122;2022-10-18T05:24:30;39.93;;;22.63;;
14872;SDS011;7528;48.576;19.122;2022-10-18T05:29:32;44.60;;;24.13;;
14872;SDS011;7528;48.576;19.122;2022-10-18T05:34:36;56.70;;;25.97;;
14872;SDS011;7528;48.576;19.122;2022-10-18T05:39:39;46.73;;;24.57;;
14872;SDS011;7528;48.576;19.122;2022-10-18T05:44:41;33.93;;;19.40;;
14872;SDS011;7528;48.576;19.122;2022-10-18T05:49:45;45.23;;;21.40;;
14872;SDS011;7528;48.576;19.122;2022-10-18T05:54:48;39.90;;;22.73;;
14872;SDS011;7528;48.576;19.122;2022-10-18T05:59:50;40.47;;;21.60;;
14872;SDS011;7528;48.576;19.122;2022-10-18T06:04:54;38.13;;;23.47;;
14872;SDS011;7528;48.576;19.122;2022-10-18T06:09:56;37.23;;;21.67;;
14872;SDS011;7528;48.576;19.122;2022-10-18T06:14:59;73.77;;;25.40;;
14872;SDS011;7528;48.576;19.122;2022-10-18T06:20:03;76.53;;;26.37;;
14872;SDS011;7528;48.576;19.122;2022-10-18T06:25:07;59.63;;;24.33;;
14872;SDS011;7528;48.576;19.122;2022-10-18T06:30:10;43.73;;;25.87;;
14872;SDS011;7528;48.576;19.122;2022-10-18T06:35:14;45.80;;;25.23;;
14872;SDS011;7528;48.576;19.122;2022-10-18T06:40:16;51.03;;;26.30;;
14872;SDS011;7528;48.576;19.122;2022-10-18T06:45:19;64.93;;;27.47;;
14872;SDS011;7528;48.576;19.122;2022-10-18T06:50:22;43.53;;;25.50;;
14872;SDS011;7528;48.576;19.122;2022-10-18T06:55:25;34.00;;;24.53;;
14872;SDS011;7528;48.576;19.122;2022-10-18T07:00:27;28.50;;;21.37;;
14872;SDS011;7528;48.576;19.122;2022-10-18T07:05:31;32.90;;;21.67;;
14872;SDS011;7528;48.576;19.122;2022-10-18T07:10:34;40.40;;;22.40;;
14872;SDS011;7528;48.576;19.122;2022-10-18T07:15:36;28.00;;;22.23;;
14872;SDS011;7528;48.576;19.122;2022-10-18T07:20:40;36.50;;;23.03;;
14872;SDS011;7528;48.576;19.122;2022-10-18T07:25:42;29.87;;;22.60;;
14872;SDS011;7528;48.576;19.122;2022-10-18T07:30:45;30.17;;;22.13;;
14872;SDS011;7528;48.576;19.122;2022-10-18T07:35:49;27.97;;;21.40;;
14872;SDS011;7528;48.576;19.122;2022-10-18T07:40:54;28.03;;;20.90;;
14872;SDS011;7528;48.576;19.122;2022-10-18T07:45:58;18.33;;;16.30;;
14872;SDS011;7528;48.576;19.122;2022-10-18T07:51:03;16.13;;;14.52;;
14872;SDS011;7528;48.576;19.122;2022-10-18T07:56:08;16.90;;;15.10;;
14872;SDS011;7528;48.576;19.122;2022-10-18T08:01:15;15.13;;;13.65;;
14872;SDS011;7528;48.576;19.122;2022-10-18T08:06:19;15.60;;;14.13;;
14872;SDS011;7528;48.576;19.122;2022-10-18T08:11:23;20.25;;;18.13;;
14872;SDS011;7528;48.576;19.122;2022-10-18T08:16:27;17.00;;;15.40;;
14872;SDS011;7528;48.576;19.122;2022-10-18T08:21:32;15.63;;;14.02;;
14872;SDS011;7528;48.576;19.122;2022-10-18T08:26:34;14.50;;;13.18;;
14872;SDS011;7528;48.576;19.122;2022-10-18T08:31:37;18.95;;;16.95;;
14872;SDS011;7528;48.576;19.122;2022-10-18T08:36:40;16.20;;;14.57;;
14872;SDS011;7528;48.576;19.122;2022-10-18T08:47:15;16.20;;;14.70;;
14872;SDS011;7528;48.576;19.122;2022-10-18T08:52:23;14.25;;;12.93;;
14872;SDS011;7528;48.576;19.122;2022-10-18T08:57:30;13.55;;;12.27;;
14872;SDS011;7528;48.576;19.122;2022-10-18T09:02:35;12.70;;;11.50;;
14872;SDS011;7528;48.576;19.122;2022-10-18T09:07:55;12.52;;;11.38;;
14872;SDS011;7528;48.576;19.122;2022-10-18T09:13:19;14.27;;;12.90;;
14872;SDS011;7528;48.576;19.122;2022-10-18T09:18:41;14.38;;;13.07;;
14872;SDS011;7528;48.576;19.122;2022-10-18T09:24:00;14.57;;;13.27;;
14872;SDS011;7528;48.576;19.122;2022-10-18T09:29:12;12.93;;;11.93;;
14872;SDS011;7528;48.576;19.122;2022-10-18T09:34:27;12.20;;;11.10;;
14872;SDS011;7528;48.576;19.122;2022-10-18T09:39:38;12.38;;;11.15;;
14872;SDS011;7528;48.576;19.122;2022-10-18T09:44:43;10.68;;;9.77;;
14872;SDS011;7528;48.576;19.122;2022-10-18T09:49:50;12.27;;;9.18;;
14872;SDS011;7528;48.576;19.122;2022-10-18T09:54:58;12.75;;;11.65;;
14872;SDS011;7528;48.576;19.122;2022-10-18T10:00:04;11.80;;;10.70;;
14872;SDS011;7528;48.576;19.122;2022-10-18T10:05:14;11.73;;;10.63;;
14872;SDS011;7528;48.576;19.122;2022-10-18T10:10:20;10.07;;;9.13;;
14872;SDS011;7528;48.576;19.122;2022-10-18T10:15:24;10.50;;;9.50;;
14872;SDS011;7528;48.576;19.122;2022-10-18T10:20:29;8.80;;;8.00;;
14872;SDS011;7528;48.576;19.122;2022-10-18T10:25:37;10.60;;;8.35;;
14872;SDS011;7528;48.576;19.122;2022-10-18T10:30:41;8.68;;;7.82;;
14872;SDS011;7528;48.576;19.122;2022-10-18T10:35:44;7.85;;;7.05;;
14872;SDS011;7528;48.576;19.122;2022-10-18T10:40:47;8.38;;;7.55;;
14872;SDS011;7528;48.576;19.122;2022-10-18T10:45:58;7.28;;;6.53;;
14872;SDS011;7528;48.576;19.122;2022-10-18T10:51:03;6.80;;;6.20;;
14872;SDS011;7528;48.576;19.122;2022-10-18T10:56:21;6.22;;;5.72;;
14872;SDS011;7528;48.576;19.122;2022-10-18T11:01:27;10.75;;;6.25;;
14872;SDS011;7528;48.576;19.122;2022-10-18T11:06:41;6.45;;;5.55;;
14872;SDS011;7528;48.576;19.122;2022-10-18T11:11:54;9.98;;;5.50;;
14872;SDS011;7528;48.576;19.122;2022-10-18T11:17:04;6.53;;;5.90;;
14872;SDS011;7528;48.576;19.122;2022-10-18T11:22:15;6.43;;;5.32;;
14872;SDS011;7528;48.576;19.122;2022-10-18T11:27:24;5.57;;;5.07;;
14872;SDS011;7528;48.576;19.122;2022-10-18T11:32:31;8.85;;;5.43;;
14872;SDS011;7528;48.576;19.122;2022-10-18T11:37:47;6.75;;;5.40;;
14872;SDS011;7528;48.576;19.122;2022-10-18T11:43:01;5.35;;;4.85;;
14872;SDS011;7528;48.576;19.122;2022-10-18T11:48:16;5.47;;;4.93;;
14872;SDS011;7528;48.576;19.122;2022-10-18T11:53:37;7.25;;;5.28;;
14872;SDS011;7528;48.576;19.122;2022-10-18T11:58:53;5.50;;;4.95;;
14872;SDS011;7528;48.576;19.122;2022-10-18T12:04:07;8.45;;;4.85;;
14872;SDS011;7528;48.576;19.122;2022-10-18T12:09:21;5.78;;;5.00;;
14872;SDS011;7528;48.576;19.122;2022-10-18T12:14:28;5.93;;;5.07;;
14872;SDS011;7528;48.576;19.122;2022-10-18T12:19:33;6.10;;;4.72;;
14872;SDS011;7528;48.576;19.122;2022-10-18T12:24:36;6.15;;;5.05;;
14872;SDS011;7528;48.576;19.122;2022-10-18T12:29:41;6.55;;;4.65;;
14872;SDS011;7528;48.576;19.122;2022-10-18T12:34:51;6.53;;;4.50;;
14872;SDS011;7528;48.576;19.122;2022-10-18T12:39:58;6.20;;;4.15;;
14872;SDS011;7528;48.576;19.122;2022-10-18T12:45:22;5.15;;;4.60;;
14872;SDS011;7528;48.576;19.122;2022-10-18T12:50:34;6.43;;;4.97;;
14872;SDS011;7528;48.576;19.122;2022-10-18T12:55:38;5.07;;;4.68;;
14872;SDS011;7528;48.576;19.122;2022-10-18T13:00:56;5.75;;;4.75;;
14872;SDS011;7528;48.576;19.122;2022-10-18T13:06:03;6.72;;;4.22;;
14872;SDS011;7528;48.576;19.122;2022-10-18T13:16:37;5.25;;;4.05;;
14872;SDS011;7528;48.576;19.122;2022-10-18T13:21:48;5.65;;;4.25;;
14872;SDS011;7528;48.576;19.122;2022-10-18T13:27:02;4.22;;;3.70;;
14872;SDS011;7528;48.576;19.122;2022-10-18T13:32:23;6.35;;;4.10;;
14872;SDS011;7528;48.576;19.122;2022-10-18T13:37:30;4.50;;;3.90;;
14872;SDS011;7528;48.576;19.122;2022-10-18T13:42:33;5.13;;;3.83;;
14872;SDS011;7528;48.576;19.122;2022-10-18T13:47:37;4.25;;;3.85;;
14872;SDS011;7528;48.576;19.122;2022-10-18T13:52:48;3.97;;;3.30;;
14872;SDS011;7528;48.576;19.122;2022-10-18T13:58:20;4.78;;;3.33;;
14872;SDS011;7528;48.576;19.122;2022-10-18T14:09:10;6.70;;;3.15;;
14872;SDS011;7528;48.576;19.122;2022-10-18T14:14:19;4.80;;;3.30;;
14872;SDS011;7528;48.576;19.122;2022-10-18T14:19:32;4.28;;;3.35;;
14872;SDS011;7528;48.576;19.122;2022-10-18T14:24:39;5.13;;;3.30;;
14872;SDS011;7528;48.576;19.122;2022-10-18T14:29:46;7.03;;;3.75;;
14872;SDS011;7528;48.576;19.122;2022-10-18T14:34:50;4.03;;;3.15;;
14872;SDS011;7528;48.576;19.122;2022-10-18T14:39:53;5.05;;;3.20;;
14872;SDS011;7528;48.576;19.122;2022-10-18T14:44:56;4.53;;;3.28;;
14872;SDS011;7528;48.576;19.122;2022-10-18T14:49:59;5.05;;;3.42;;
14872;SDS011;7528;48.576;19.122;2022-10-18T14:55:02;3.90;;;3.50;;
14872;SDS011;7528;48.576;19.122;2022-10-18T15:00:06;4.70;;;4.05;;
14872;SDS011;7528;48.576;19.122;2022-10-18T15:05:22;4.78;;;3.92;;
14872;SDS011;7528;48.576;19.122;2022-10-18T15:10:27;4.38;;;3.45;;
14872;SDS011;7528;48.576;19.122;2022-10-18T15:15:31;4.53;;;3.63;;
14872;SDS011;7528;48.576;19.122;2022-10-18T15:20:36;5.05;;;4.15;;
14872;SDS011;7528;48.576;19.122;2022-10-18T15:25:41;5.15;;;4.32;;
14872;SDS011;7528;48.576;19.122;2022-10-18T15:30:44;6.78;;;4.35;;
14872;SDS011;7528;48.576;19.122;2022-10-18T15:35:48;7.03;;;4.88;;
14872;SDS011;7528;48.576;19.122;2022-10-18T15:40:51;12.43;;;8.32;;
14872;SDS011;7528;48.576;19.122;2022-10-18T15:45:55;18.73;;;10.57;;
14872;SDS011;7528;48.576;19.122;2022-10-18T15:51:01;12.77;;;8.48;;
14872;SDS011;7528;48.576;19.122;2022-10-18T15:56:05;11.82;;;6.40;;
14872;SDS011;7528;48.576;19.122;2022-10-18T16:01:14;11.90;;;6.32;;
14872;SDS011;7528;48.576;19.122;2022-10-18T16:06:20;12.88;;;5.50;;
14872;SDS011;7528;48.576;19.122;2022-10-18T16:11:22;9.38;;;5.43;;
14872;SDS011;7528;48.576;19.122;2022-10-18T16:16:26;23.02;;;9.35;;
14872;SDS011;7528;48.576;19.122;2022-10-18T16:21:31;14.75;;;7.22;;
14872;SDS011;7528;48.576;19.122;2022-10-18T16:26:35;14.88;;;7.65;;
14872;SDS011;7528;48.576;19.122;2022-10-18T16:31:38;8.02;;;7.22;;
14872;SDS011;7528;48.576;19.122;2022-10-18T16:36:42;8.25;;;6.25;;
14872;SDS011;7528;48.576;19.122;2022-10-18T16:41:45;15.38;;;8.30;;
14872;SDS011;7528;48.576;19.122;2022-10-18T16:46:48;11.38;;;7.90;;
14872;SDS011;7528;48.576;19.122;2022-10-18T16:51:52;12.27;;;9.85;;
14872;SDS011;7528;48.576;19.122;2022-10-18T16:56:55;12.00;;;9.55;;
14872;SDS011;7528;48.576;19.122;2022-10-18T17:01:57;13.60;;;9.55;;
14872;SDS011;7528;48.576;19.122;2022-10-18T17:07:06;11.55;;;8.68;;
14872;SDS011;7528;48.576;19.122;2022-10-18T17:12:13;10.52;;;8.00;;
14872;SDS011;7528;48.576;19.122;2022-10-18T17:17:15;8.43;;;7.47;;
14872;SDS011;7528;48.576;19.122;2022-10-18T17:22:20;10.05;;;7.65;;
14872;SDS011;7528;48.576;19.122;2022-10-18T17:27:22;11.07;;;8.70;;
14872;SDS011;7528;48.576;19.122;2022-10-18T17:32:25;8.18;;;7.35;;
14872;SDS011;7528;48.576;19.122;2022-10-18T17:37:28;9.38;;;8.27;;
14872;SDS011;7528;48.576;19.122;2022-10-18T17:42:31;10.02;;;9.02;;
14872;SDS011;7528;48.576;19.122;2022-10-18T17:47:34;13.32;;;11.10;;
14872;SDS011;7528;48.576;19.122;2022-10-18T17:52:40;20.25;;;15.20;;
14872;SDS011;7528;48.576;19.122;2022-10-18T17:57:43;28.85;;;18.30;;
14872;SDS011;7528;48.576;19.122;2022-10-18T18:02:45;26.63;;;20.60;;
14872;SDS011;7528;48.576;19.122;2022-10-18T18:07:49;35.25;;;28.65;;
14872;SDS011;7528;48.576;19.122;2022-10-18T18:12:52;32.70;;;29.25;;
14872;SDS011;7528;48.576;19.122;2022-10-18T18:17:54;24.38;;;22.10;;
14872;SDS011;7528;48.576;19.122;2022-10-18T18:22:58;15.18;;;12.52;;
14872;SDS011;7528;48.576;19.122;2022-10-18T18:28:01;13.38;;;11.30;;
14872;SDS011;7528;48.576;19.122;2022-10-18T18:33:03;10.73;;;8.40;;
14872;SDS011;7528;48.576;19.122;2022-10-18T18:38:07;11.25;;;8.73;;
14872;SDS011;7528;48.576;19.122;2022-10-18T18:43:09;15.90;;;11.93;;
14872;SDS011;7528;48.576;19.122;2022-10-18T18:48:12;13.95;;;12.45;;
14872;SDS011;7528;48.576;19.122;2022-10-18T18:53:15;11.20;;;9.00;;
14872;SDS011;7528;48.576;19.122;2022-10-18T18:58:18;10.77;;;9.73;;
14872;SDS011;7528;48.576;19.122;2022-10-18T19:03:21;15.82;;;11.75;;
14872;SDS011;7528;48.576;19.122;2022-10-18T19:08:25;11.52;;;10.30;;
14872;SDS011;7528;48.576;19.122;2022-10-18T19:13:27;15.80;;;8.95;;
14872;SDS011;7528;48.576;19.122;2022-10-18T19:18:30;9.98;;;8.07;;
14872;SDS011;7528;48.576;19.122;2022-10-18T19:23:33;18.10;;;15.77;;
14872;SDS011;7528;48.576;19.122;2022-10-18T19:28:36;16.40;;;12.68;;
14872;SDS011;7528;48.576;19.122;2022-10-18T19:33:38;27.80;;;17.92;;
14872;SDS011;7528;48.576;19.122;2022-10-18T19:38:42;24.70;;;20.33;;
14872;SDS011;7528;48.576;19.122;2022-10-18T19:43:44;22.52;;;18.55;;
14872;SDS011;7528;48.576;19.122;2022-10-18T19:48:47;16.10;;;13.63;;
14872;SDS011;7528;48.576;19.122;2022-10-18T19:53:51;29.58;;;22.45;;
14872;SDS011;7528;48.576;19.122;2022-10-18T19:58:55;22.17;;;18.85;;
14872;SDS011;7528;48.576;19.122;2022-10-18T20:03:58;22.90;;;17.45;;
14872;SDS011;7528;48.576;19.122;2022-10-18T20:09:02;22.70;;;19.33;;
14872;SDS011;7528;48.576;19.122;2022-10-18T20:14:04;20.40;;;14.65;;
14872;SDS011;7528;48.576;19.122;2022-10-18T20:19:09;25.90;;;21.08;;
14872;SDS011;7528;48.576;19.122;2022-10-18T20:24:12;33.70;;;27.83;;
14872;SDS011;7528;48.576;19.122;2022-10-18T20:29:15;24.58;;;20.67;;
14872;SDS011;7528;48.576;19.122;2022-10-18T20:34:18;23.10;;;19.05;;
14872;SDS011;7528;48.576;19.122;2022-10-18T20:39:26;32.08;;;26.15;;
14872;SDS011;7528;48.576;19.122;2022-10-18T20:44:28;33.67;;;25.53;;
14872;SDS011;7528;48.576;19.122;2022-10-18T20:49:33;26.75;;;23.50;;
14872;SDS011;7528;48.576;19.122;2022-10-18T20:54:37;22.70;;;19.43;;
14872;SDS011;7528;48.576;19.122;2022-10-18T20:59:39;21.88;;;16.75;;
14872;SDS011;7528;48.576;19.122;2022-10-18T21:04:41;15.60;;;13.23;;
14872;SDS011;7528;48.576;19.122;2022-10-18T21:09:45;17.50;;;13.53;;
14872;SDS011;7528;48.576;19.122;2022-10-18T21:14:48;14.43;;;12.93;;
14872;SDS011;7528;48.576;19.122;2022-10-18T21:19:50;24.50;;;20.77;;
14872;SDS011;7528;48.576;19.122;2022-10-18T21:24:55;21.07;;;17.50;;
14872;SDS011;7528;48.576;19.122;2022-10-18T21:29:58;17.90;;;15.67;;
14872;SDS011;7528;48.576;19.122;2022-10-18T21:35:00;17.67;;;14.23;;
14872;SDS011;7528;48.576;19.122;2022-10-18T21:40:05;21.37;;;15.30;;
14872;SDS011;7528;48.576;19.122;2022-10-18T21:45:08;22.90;;;16.37;;
14872;SDS011;7528;48.576;19.122;2022-10-18T21:50:11;20.07;;;15.70;;
14872;SDS011;7528;48.576;19.122;2022-10-18T21:55:15;15.80;;;13.93;;
14872;SDS011;7528;48.576;19.122;2022-10-18T22:00:17;15.83;;;13.80;;
14872;SDS011;7528;48.576;19.122;2022-10-18T22:05:20;15.80;;;12.70;;
14872;SDS011;7528;48.576;19.122;2022-10-18T22:10:24;15.63;;;11.70;;
14872;SDS011;7528;48.576;19.122;2022-10-18T22:15:26;15.30;;;12.60;;
14872;SDS011;7528;48.576;19.122;2022-10-18T22:20:29;21.37;;;13.07;;
14872;SDS011;7528;48.576;19.122;2022-10-18T22:25:35;21.03;;;13.00;;
14872;SDS011;7528;48.576;19.122;2022-10-18T22:30:37;17.40;;;12.93;;
14872;SDS011;7528;48.576;19.122;2022-10-18T22:35:39;16.37;;;13.83;;
14872;SDS011;7528;48.576;19.122;2022-10-18T22:40:44;17.10;;;14.50;;
14872;SDS011;7528;48.576;19.122;2022-10-18T22:45:46;15.70;;;14.10;;
14872;SDS011;7528;48.576;19.122;2022-10-18T22:50:49;16.17;;;13.50;;
14872;SDS011;7528;48.576;19.122;2022-10-18T22:55:53;24.47;;;14.47;;
14872;SDS011;7528;48.576;19.122;2022-10-18T23:00:59;16.40;;;14.17;;
14872;SDS011;7528;48.576;19.122;2022-10-18T23:06:02;15.23;;;12.77;;
14872;SDS011;7528;48.576;19.122;2022-10-18T23:11:06;17.73;;;14.00;;
14872;SDS011;7528;48.576;19.122;2022-10-18T23:16:09;19.90;;;12.90;;
14872;SDS011;7528;48.576;19.122;2022-10-18T23:21:12;18.37;;;14.57;;
14872;SDS011;7528;48.576;19.122;2022-10-18T23:26:17;20.40;;;14.30;;
14872;SDS011;7528;48.576;19.122;2022-10-18T23:31:22;16.37;;;14.47;;
14872;SDS011;7528;48.576;19.122;2022-10-18T23:36:25;14.83;;;13.30;;
14872;SDS011;7528;48.576;19.122;2022-10-18T23:41:30;16.03;;;12.40;;
14872;SDS011;7528;48.576;19.122;2022-10-18T23:46:32;14.43;;;11.90;;
14872;SDS011;7528;48.576;19.122;2022-10-18T23:51:34;14.97;;;11.13;;
14872;SDS011;7528;48.576;19.122;2022-10-18T23:56:38;19.00;;;11.80;;
